createdAt,value
2023-05-09T00:00:54.324Z,7.63
2023-05-09T00:03:21.912Z,7.07
2023-05-09T00:05:49.628Z,6.60
2023-05-09T00:08:18.007Z,7.18
2023-05-09T00:10:45.569Z,6.78
2023-05-09T00:13:14.211Z,6.43
2023-05-09T00:15:42.069Z,6.05
2023-05-09T00:18:09.818Z,5.90
2023-05-09T00:20:37.589Z,5.75
2023-05-09T00:23:05.822Z,5.93
2023-05-09T00:25:33.976Z,6.40
2023-05-09T00:28:01.811Z,6.60
2023-05-09T00:30:29.420Z,5.90
2023-05-09T00:32:57.229Z,5.50
2023-05-09T00:35:25.066Z,5.03
2023-05-09T00:37:52.643Z,5.40
2023-05-09T00:40:20.683Z,5.45
2023-05-09T00:42:48.333Z,5.50
2023-05-09T00:45:16.341Z,4.72
2023-05-09T00:47:44.119Z,5.47
2023-05-09T00:50:11.790Z,5.22
2023-05-09T00:52:39.729Z,4.63
2023-05-09T00:55:09.278Z,5.30
2023-05-09T00:57:37.204Z,4.45
2023-05-09T01:00:05.493Z,4.40
2023-05-09T01:02:33.483Z,4.00
2023-05-09T01:05:01.517Z,3.97
2023-05-09T01:07:40.858Z,4.30
2023-05-09T01:10:44.255Z,3.67
2023-05-09T01:13:28.009Z,4.53
2023-05-09T01:16:09.155Z,4.45
2023-05-09T01:19:10.195Z,3.85
2023-05-09T01:21:44.198Z,4.43
2023-05-09T01:24:36.407Z,4.55
2023-05-09T01:27:23.666Z,3.90
2023-05-09T01:29:58.654Z,3.67
2023-05-09T01:35:00.568Z,4.07
2023-05-09T01:37:37.940Z,3.97
2023-05-09T01:40:14.701Z,3.78
2023-05-09T01:42:57.711Z,3.25
2023-05-09T01:45:27.642Z,3.20
2023-05-09T01:47:56.594Z,3.42
2023-05-09T01:50:26.048Z,3.42
2023-05-09T01:52:57.452Z,3.17
2023-05-09T01:55:30.067Z,3.75
2023-05-09T01:57:59.942Z,2.97
2023-05-09T02:00:28.640Z,3.53
2023-05-09T02:02:57.444Z,3.28
2023-05-09T02:05:29.568Z,3.05
2023-05-09T02:08:03.703Z,3.15
2023-05-09T02:10:35.353Z,3.20
2023-05-09T02:13:03.278Z,2.80
2023-05-09T02:15:32.497Z,2.83
2023-05-09T02:18:00.760Z,2.97
2023-05-09T02:20:28.507Z,2.67
2023-05-09T02:22:57.060Z,2.97
2023-05-09T02:25:24.884Z,2.75
2023-05-09T02:27:54.421Z,2.50
2023-05-09T02:30:26.191Z,2.88
2023-05-09T02:33:05.629Z,2.80
2023-05-09T02:35:34.704Z,3.13
2023-05-09T02:38:03.005Z,2.47
2023-05-09T02:40:31.229Z,2.72
2023-05-09T02:42:59.086Z,2.90
2023-05-09T02:45:27.091Z,2.33
2023-05-09T02:47:54.643Z,2.65
2023-05-09T02:50:23.073Z,2.70
2023-05-09T02:52:50.621Z,2.75
2023-05-09T02:55:18.176Z,2.72
2023-05-09T02:57:45.860Z,2.83
2023-05-09T03:00:14.613Z,2.45
2023-05-09T03:02:42.414Z,2.10
2023-05-09T03:05:16.147Z,2.50
2023-05-09T03:07:44.676Z,2.80
2023-05-09T03:10:13.065Z,2.38
2023-05-09T03:12:43.958Z,3.03
2023-05-09T03:15:13.431Z,2.45
2023-05-09T03:17:42.336Z,2.58
2023-05-09T03:20:10.536Z,2.40
2023-05-09T03:22:38.143Z,2.53
2023-05-09T03:25:09.824Z,2.25
2023-05-09T03:27:37.303Z,2.05
2023-05-09T03:30:08.647Z,2.88
2023-05-09T03:32:36.717Z,2.95
2023-05-09T03:35:04.757Z,2.40
2023-05-09T03:37:33.670Z,2.70
2023-05-09T03:40:01.193Z,2.45
2023-05-09T03:42:32.990Z,2.50
2023-05-09T03:45:03.067Z,2.15
2023-05-09T03:47:30.673Z,2.92
2023-05-09T03:49:58.833Z,2.92
2023-05-09T03:52:26.381Z,2.45
2023-05-09T03:54:54.418Z,3.22
2023-05-09T03:57:21.879Z,2.40
2023-05-09T03:59:51.751Z,2.55
2023-05-09T04:02:44.941Z,2.60
2023-05-09T04:05:38.073Z,3.00
2023-05-09T04:08:08.741Z,2.72
2023-05-09T04:10:36.660Z,2.60
2023-05-09T04:13:05.311Z,2.65
2023-05-09T04:15:32.929Z,2.50
2023-05-09T04:18:00.771Z,2.72
2023-05-09T04:20:28.589Z,2.97
2023-05-09T04:22:56.801Z,2.65
2023-05-09T04:25:24.856Z,2.65
2023-05-09T04:27:53.056Z,2.30
2023-05-09T04:30:21.137Z,2.60
2023-05-09T04:32:49.348Z,2.80
2023-05-09T04:35:19.663Z,2.70
2023-05-09T04:37:49.459Z,2.85
2023-05-09T04:40:18.039Z,2.88
2023-05-09T04:42:53.763Z,3.60
2023-05-09T04:45:25.206Z,2.85
2023-05-09T04:47:52.809Z,2.60
2023-05-09T04:50:20.770Z,2.88
2023-05-09T04:52:48.345Z,2.92
2023-05-09T04:55:16.357Z,3.13
2023-05-09T04:57:47.524Z,3.10
2023-05-09T05:00:17.990Z,3.53
2023-05-09T05:02:47.404Z,3.47
2023-05-09T05:05:15.157Z,3.80
2023-05-09T05:07:44.369Z,3.25
2023-05-09T05:10:16.548Z,3.08
2023-05-09T05:12:48.653Z,3.13
2023-05-09T05:15:19.615Z,3.25
2023-05-09T05:17:48.789Z,3.42
2023-05-09T05:20:22.866Z,2.92
2023-05-09T05:22:51.152Z,3.13
2023-05-09T05:25:18.807Z,3.00
2023-05-09T05:27:48.847Z,3.50
2023-05-09T05:30:16.998Z,3.13
2023-05-09T05:32:45.136Z,2.80
2023-05-09T05:35:14.729Z,3.00
2023-05-09T05:37:43.799Z,3.65
2023-05-09T05:40:12.369Z,2.92
2023-05-09T05:42:44.624Z,2.80
2023-05-09T05:45:13.037Z,2.70
2023-05-09T05:47:44.241Z,13.27
2023-05-09T05:50:16.132Z,3.13
2023-05-09T05:52:44.415Z,3.50
2023-05-09T05:55:15.929Z,3.25
2023-05-09T05:57:44.031Z,3.20
2023-05-09T06:00:15.665Z,2.50
2023-05-09T06:02:51.002Z,2.78
2023-05-09T06:05:26.759Z,2.85
2023-05-09T06:07:54.343Z,2.97
2023-05-09T06:10:22.082Z,2.80
2023-05-09T06:12:49.973Z,2.38
2023-05-09T06:15:18.339Z,2.65
2023-05-09T06:17:49.436Z,3.30
2023-05-09T06:20:17.340Z,2.88
2023-05-09T06:22:44.942Z,3.00
2023-05-09T06:25:12.964Z,3.30
2023-05-09T06:27:40.806Z,3.70
2023-05-09T06:30:21.436Z,2.70
2023-05-09T06:32:54.377Z,2.78
2023-05-09T06:35:22.216Z,2.90
2023-05-09T06:37:50.655Z,3.15
2023-05-09T06:40:18.342Z,3.58
2023-05-09T06:42:46.602Z,3.28
2023-05-09T06:45:15.897Z,2.50
2023-05-09T06:47:43.863Z,2.45
2023-05-09T06:50:11.724Z,3.28
2023-05-09T06:52:39.304Z,3.10
2023-05-09T06:55:08.368Z,2.80
2023-05-09T06:57:36.324Z,3.00
2023-05-09T07:00:05.443Z,2.78
2023-05-09T07:02:33.332Z,2.80
2023-05-09T07:05:01.366Z,3.20
2023-05-09T07:07:29.414Z,2.88
2023-05-09T07:10:07.385Z,2.95
2023-05-09T07:12:37.887Z,2.85
2023-05-09T07:15:06.732Z,3.38
2023-05-09T07:17:34.455Z,3.00
2023-05-09T07:20:04.260Z,2.65
2023-05-09T07:22:33.111Z,2.60
2023-05-09T07:25:02.461Z,3.53
2023-05-09T07:27:30.247Z,2.70
2023-05-09T07:29:57.836Z,2.92
2023-05-09T07:32:25.868Z,2.97
2023-05-09T07:34:53.381Z,3.33
2023-05-09T07:37:20.961Z,2.60
2023-05-09T07:39:48.658Z,2.63
2023-05-09T07:42:16.591Z,3.10
2023-05-09T07:44:44.524Z,2.80
2023-05-09T07:47:15.450Z,2.33
2023-05-09T07:49:43.861Z,3.03
2023-05-09T07:52:11.397Z,2.88
2023-05-09T07:54:39.000Z,2.90
2023-05-09T07:57:06.457Z,3.15
2023-05-09T07:59:34.409Z,2.45
2023-05-09T08:02:02.608Z,2.65
2023-05-09T08:04:30.179Z,2.40
2023-05-09T08:06:58.147Z,2.83
2023-05-09T08:09:26.908Z,3.15
2023-05-09T08:11:54.676Z,2.78
2023-05-09T08:14:22.562Z,2.38
2023-05-09T08:16:50.308Z,2.22
2023-05-09T08:19:17.862Z,2.88
2023-05-09T08:21:45.237Z,2.75
2023-05-09T08:24:12.728Z,2.40
2023-05-09T08:26:40.600Z,2.90
2023-05-09T08:29:08.196Z,2.42
2023-05-09T08:31:35.938Z,2.55
2023-05-09T08:34:04.123Z,2.50
2023-05-09T08:36:32.917Z,2.67
2023-05-09T08:39:01.004Z,2.38
2023-05-09T08:41:28.655Z,2.75
2023-05-09T08:43:57.091Z,2.65
2023-05-09T08:46:37.699Z,2.80
2023-05-09T08:49:09.158Z,3.17
2023-05-09T08:51:37.200Z,2.53
2023-05-09T08:54:06.107Z,2.72
2023-05-09T08:56:36.449Z,3.10
2023-05-09T08:59:06.084Z,2.63
2023-05-09T09:01:37.169Z,2.72
2023-05-09T09:04:09.264Z,2.70
2023-05-09T09:06:37.332Z,2.20
2023-05-09T09:09:08.875Z,2.40
2023-05-09T09:11:39.367Z,2.50
2023-05-09T09:14:17.252Z,2.42
2023-05-09T09:16:47.899Z,3.22
2023-05-09T09:19:19.244Z,2.10
2023-05-09T09:21:51.407Z,2.70
2023-05-09T09:24:23.506Z,2.42
2023-05-09T09:26:56.787Z,3.25
2023-05-09T09:29:24.787Z,3.00
2023-05-09T09:31:55.970Z,3.25
2023-05-09T09:34:24.716Z,2.58
2023-05-09T09:36:52.452Z,2.63
2023-05-09T09:39:21.884Z,2.88
2023-05-09T09:41:49.927Z,3.08
2023-05-09T09:44:21.072Z,2.80
2023-05-09T09:46:55.511Z,3.05
2023-05-09T09:49:27.484Z,3.05
2023-05-09T09:51:57.934Z,2.42
2023-05-09T09:54:29.205Z,3.25
2023-05-09T09:56:57.345Z,2.75
2023-05-09T09:59:27.045Z,2.95
2023-05-09T10:02:08.376Z,3.25
2023-05-09T10:04:39.566Z,2.83
2023-05-09T10:07:13.679Z,3.00
2023-05-09T10:09:44.299Z,3.00
2023-05-09T10:12:14.992Z,2.30
2023-05-09T10:14:43.759Z,2.58
2023-05-09T10:17:14.985Z,2.58
2023-05-09T10:19:47.462Z,2.97
2023-05-09T10:22:16.878Z,2.67
2023-05-09T10:24:55.733Z,2.92
2023-05-09T10:27:29.009Z,2.60
2023-05-09T10:30:08.424Z,3.00
2023-05-09T10:33:08.136Z,3.15
2023-05-09T10:35:45.392Z,3.15
2023-05-09T10:38:14.315Z,3.85
2023-05-09T10:40:42.318Z,3.22
2023-05-09T10:43:10.469Z,2.92
2023-05-09T10:45:38.791Z,3.83
2023-05-09T10:48:09.214Z,3.30
2023-05-09T10:50:39.169Z,3.03
2023-05-09T10:53:07.851Z,3.42
2023-05-09T10:55:52.561Z,3.67
2023-05-09T10:58:37.688Z,3.55
2023-05-09T11:01:06.128Z,3.67
2023-05-09T11:03:54.408Z,3.97
2023-05-09T11:06:53.677Z,3.33
2023-05-09T11:09:38.332Z,3.70
2023-05-09T11:12:06.237Z,2.83
2023-05-09T11:14:47.696Z,3.08
2023-05-09T11:17:28.697Z,3.78
2023-05-09T11:20:05.919Z,3.35
2023-05-09T11:22:45.177Z,3.70
2023-05-09T11:25:15.294Z,3.80
2023-05-09T11:27:49.820Z,3.30
2023-05-09T11:30:20.293Z,3.80
2023-05-09T11:32:56.182Z,4.03
2023-05-09T11:35:27.157Z,3.53
2023-05-09T11:38:06.211Z,3.55
2023-05-09T11:40:35.980Z,3.90
2023-05-09T11:43:04.177Z,3.92
2023-05-09T11:45:33.926Z,3.83
2023-05-09T11:48:02.317Z,3.45
2023-05-09T11:50:30.331Z,3.90
2023-05-09T11:52:58.765Z,3.13
2023-05-09T11:55:30.454Z,3.50
2023-05-09T11:57:59.539Z,3.30
2023-05-09T12:00:27.379Z,3.50
2023-05-09T12:02:55.187Z,4.32
2023-05-09T12:05:23.990Z,3.67
2023-05-09T12:07:52.988Z,3.30
2023-05-09T12:10:25.890Z,3.10
2023-05-09T12:12:57.351Z,3.85
2023-05-09T12:15:25.151Z,3.60
2023-05-09T12:18:08.459Z,3.50
2023-05-09T12:20:51.394Z,3.70
2023-05-09T12:23:19.909Z,3.70
2023-05-09T12:25:59.845Z,3.15
2023-05-09T12:28:28.117Z,3.50
2023-05-09T12:30:56.378Z,3.78
2023-05-09T12:33:24.807Z,3.70
2023-05-09T12:36:13.892Z,3.35
2023-05-09T12:38:42.309Z,3.70
2023-05-09T12:41:30.864Z,3.33
2023-05-09T12:43:59.957Z,3.28
2023-05-09T12:46:27.669Z,3.30
2023-05-09T12:48:55.913Z,3.50
2023-05-09T12:51:23.885Z,3.22
2023-05-09T12:53:51.454Z,3.03
2023-05-09T12:56:21.030Z,3.35
2023-05-09T12:58:59.625Z,3.70
2023-05-09T13:01:30.784Z,3.25
2023-05-09T13:04:04.299Z,3.50
2023-05-09T13:06:32.858Z,3.92
2023-05-09T13:09:06.306Z,3.67
2023-05-09T13:11:34.830Z,3.65
2023-05-09T13:14:04.412Z,3.92
2023-05-09T13:16:32.193Z,3.45
2023-05-09T13:19:01.894Z,3.70
2023-05-09T13:21:29.620Z,3.28
2023-05-09T13:23:57.427Z,3.50
2023-05-09T13:26:25.757Z,3.50
2023-05-09T13:28:54.080Z,3.60
2023-05-09T13:31:22.867Z,3.05
2023-05-09T13:33:52.119Z,2.83
2023-05-09T13:36:20.424Z,3.13
2023-05-09T13:38:48.614Z,3.30
2023-05-09T13:41:20.498Z,3.53
2023-05-09T13:43:48.408Z,3.35
2023-05-09T13:46:16.158Z,3.42
2023-05-09T13:48:44.846Z,3.28
2023-05-09T13:51:12.543Z,3.47
2023-05-09T13:53:40.133Z,3.58
2023-05-09T13:56:09.933Z,3.05
2023-05-09T13:58:37.654Z,3.35
2023-05-09T14:01:05.451Z,2.67
2023-05-09T14:03:33.372Z,3.28
2023-05-09T14:06:01.193Z,2.90
2023-05-09T14:08:28.805Z,3.08
2023-05-09T14:10:56.412Z,3.88
2023-05-09T14:13:24.125Z,2.90
2023-05-09T14:15:52.327Z,3.10
2023-05-09T14:18:23.042Z,3.25
2023-05-09T14:20:50.750Z,2.92
2023-05-09T14:23:20.597Z,3.10
2023-05-09T14:25:48.303Z,2.78
2023-05-09T14:28:16.325Z,3.53
2023-05-09T14:30:44.149Z,3.70
2023-05-09T14:33:11.773Z,3.15
2023-05-09T14:35:41.365Z,3.00
2023-05-09T14:38:09.930Z,3.25
2023-05-09T14:40:37.818Z,2.80
2023-05-09T14:43:06.205Z,3.47
2023-05-09T14:45:34.540Z,2.88
2023-05-09T14:48:04.071Z,3.42
2023-05-09T14:50:34.625Z,3.30
2023-05-09T14:53:02.379Z,3.00
2023-05-09T14:55:31.489Z,2.90
2023-05-09T14:57:59.412Z,3.20
2023-05-09T15:00:28.963Z,3.28
2023-05-09T15:02:57.295Z,3.38
2023-05-09T15:05:25.401Z,3.33
2023-05-09T15:07:53.159Z,3.40
2023-05-09T15:10:21.204Z,3.30
2023-05-09T15:12:48.929Z,2.85
2023-05-09T15:15:21.070Z,3.30
2023-05-09T15:17:48.667Z,2.80
2023-05-09T15:20:20.649Z,2.97
2023-05-09T15:22:51.070Z,3.45
2023-05-09T15:25:19.972Z,2.90
2023-05-09T15:27:50.573Z,2.85
2023-05-09T15:30:18.551Z,2.92
2023-05-09T15:32:47.252Z,3.22
2023-05-09T15:35:16.197Z,2.75
2023-05-09T15:37:44.433Z,3.00
2023-05-09T15:40:12.511Z,3.63
2023-05-09T15:42:42.720Z,3.55
2023-05-09T15:45:11.124Z,3.10
2023-05-09T15:47:39.284Z,3.15
2023-05-09T15:50:07.957Z,3.42
2023-05-09T15:52:35.782Z,3.50
2023-05-09T15:55:03.403Z,3.75
2023-05-09T15:57:31.343Z,3.72
2023-05-09T15:59:59.154Z,3.63
2023-05-09T16:02:28.690Z,4.25
2023-05-09T16:04:56.555Z,4.00
2023-05-09T16:07:25.398Z,3.38
2023-05-09T16:09:53.019Z,4.05
2023-05-09T16:12:24.546Z,3.78
2023-05-09T16:14:52.347Z,4.05
2023-05-09T16:17:20.208Z,3.90
2023-05-09T16:19:47.931Z,3.63
2023-05-09T16:22:15.773Z,3.88
2023-05-09T16:24:44.192Z,3.42
2023-05-09T16:27:12.195Z,3.58
2023-05-09T16:29:39.868Z,3.15
2023-05-09T16:32:08.846Z,3.95
2023-05-09T16:34:37.590Z,2.92
2023-05-09T16:37:08.384Z,3.17
2023-05-09T16:39:39.249Z,3.30
2023-05-09T16:42:07.028Z,3.80
2023-05-09T16:44:34.779Z,3.40
2023-05-09T16:47:02.569Z,4.35
2023-05-09T16:49:30.143Z,3.53
2023-05-09T16:51:58.444Z,3.08
2023-05-09T16:54:26.161Z,3.13
2023-05-09T16:56:54.354Z,3.08
2023-05-09T16:59:22.125Z,2.85
2023-05-09T17:01:49.825Z,2.90
2023-05-09T17:04:17.809Z,2.55
2023-05-09T17:06:45.629Z,3.10
2023-05-09T17:09:13.607Z,3.00
2023-05-09T17:11:41.550Z,3.38
2023-05-09T17:14:09.118Z,2.63
2023-05-09T17:16:38.261Z,2.25
2023-05-09T17:19:06.028Z,3.10
2023-05-09T17:21:34.526Z,2.85
2023-05-09T17:24:02.573Z,3.13
2023-05-09T17:26:30.655Z,3.55
2023-05-09T17:28:58.489Z,2.75
2023-05-09T17:31:26.724Z,2.53
2023-05-09T17:33:54.484Z,2.78
2023-05-09T17:36:22.047Z,2.80
2023-05-09T17:38:49.723Z,2.60
2023-05-09T17:41:17.662Z,3.03
2023-05-09T17:43:45.339Z,2.53
2023-05-09T17:46:14.972Z,2.85
2023-05-09T17:48:42.901Z,2.63
2023-05-09T17:51:10.575Z,2.38
2023-05-09T17:53:38.113Z,2.75
2023-05-09T17:56:05.831Z,2.85
2023-05-09T17:58:34.033Z,2.72
2023-05-09T18:01:01.729Z,2.63
2023-05-09T18:03:29.724Z,2.50
2023-05-09T18:05:57.795Z,2.65
2023-05-09T18:08:25.757Z,2.45
2023-05-09T18:10:57.073Z,2.88
2023-05-09T18:13:24.906Z,3.00
2023-05-09T18:15:57.223Z,3.10
2023-05-09T18:18:25.165Z,2.65
2023-05-09T18:20:52.852Z,2.58
2023-05-09T18:23:23.821Z,2.60
2023-05-09T18:25:52.519Z,2.88
2023-05-09T18:28:30.533Z,2.80
2023-05-09T18:31:00.874Z,3.35
2023-05-09T18:33:29.233Z,2.63
2023-05-09T18:35:56.783Z,2.72
2023-05-09T18:38:24.450Z,2.83
2023-05-09T18:40:52.517Z,2.13
2023-05-09T18:43:22.182Z,2.50
2023-05-09T18:45:50.346Z,2.53
2023-05-09T18:48:18.348Z,2.50
2023-05-09T18:50:45.978Z,2.33
2023-05-09T18:53:14.005Z,2.60
2023-05-09T18:55:42.904Z,2.72
2023-05-09T18:58:10.579Z,1.75
2023-05-09T19:00:39.999Z,2.20
2023-05-09T19:03:07.773Z,2.75
2023-05-09T19:05:36.028Z,2.05
2023-05-09T19:08:04.198Z,2.30
2023-05-09T19:10:32.099Z,2.28
2023-05-09T19:12:59.975Z,2.55
2023-05-09T19:15:28.439Z,2.08
2023-05-09T19:17:56.621Z,2.50
2023-05-09T19:20:24.849Z,2.47
2023-05-09T19:22:52.595Z,2.10
2023-05-09T19:25:20.411Z,1.90
2023-05-09T19:27:52.995Z,2.65
2023-05-09T19:30:21.142Z,1.90
2023-05-09T19:32:48.876Z,2.17
2023-05-09T19:35:16.721Z,2.20
2023-05-09T19:37:44.552Z,2.50
2023-05-09T19:40:12.779Z,2.50
2023-05-09T19:42:42.221Z,2.88
2023-05-09T19:45:10.546Z,2.72
2023-05-09T19:47:38.212Z,2.10
2023-05-09T19:50:07.106Z,2.55
2023-05-09T19:52:36.527Z,2.20
2023-05-09T19:55:06.150Z,2.78
2023-05-09T19:57:34.022Z,2.63
2023-05-09T20:00:01.694Z,2.42
2023-05-09T20:02:29.550Z,3.03
2023-05-09T20:04:57.108Z,2.67
2023-05-09T20:07:24.710Z,2.08
2023-05-09T20:09:52.741Z,2.38
2023-05-09T20:12:20.088Z,2.00
2023-05-09T20:14:47.680Z,3.15
2023-05-09T20:17:15.333Z,3.17
2023-05-09T20:19:43.023Z,2.38
2023-05-09T20:22:10.486Z,2.67
2023-05-09T20:24:38.125Z,2.78
2023-05-09T20:27:05.798Z,3.10
2023-05-09T20:29:33.356Z,2.90
2023-05-09T20:32:01.511Z,3.42
2023-05-09T20:34:29.771Z,2.90
2023-05-09T20:36:57.500Z,3.10
2023-05-09T20:39:25.170Z,2.65
2023-05-09T20:41:53.045Z,2.60
2023-05-09T20:44:20.818Z,3.30
2023-05-09T20:46:48.529Z,2.88
2023-05-09T20:49:16.233Z,3.92
2023-05-09T20:51:44.236Z,3.38
2023-05-09T20:54:11.912Z,3.05
2023-05-09T20:56:39.602Z,4.25
2023-05-09T20:59:07.015Z,3.80
2023-05-09T21:01:37.517Z,4.03
2023-05-09T21:04:05.971Z,3.80
2023-05-09T21:06:33.821Z,3.60
2023-05-09T21:09:02.029Z,3.10
2023-05-09T21:11:30.428Z,3.63
2023-05-09T21:13:57.966Z,4.25
2023-05-09T21:16:28.648Z,3.63
2023-05-09T21:18:57.582Z,3.25
2023-05-09T21:21:25.526Z,3.83
2023-05-09T21:23:53.119Z,3.40
2023-05-09T21:26:23.227Z,3.05
2023-05-09T21:28:51.376Z,3.05
2023-05-09T21:31:18.637Z,4.28
2023-05-09T21:33:46.440Z,3.95
2023-05-09T21:36:14.321Z,3.58
2023-05-09T21:38:42.059Z,3.25
2023-05-09T21:41:10.360Z,2.92
2023-05-09T21:43:37.984Z,3.05
2023-05-09T21:46:06.176Z,3.78
2023-05-09T21:48:34.394Z,2.83
2023-05-09T21:51:03.787Z,3.22
2023-05-09T21:53:31.717Z,3.00
2023-05-09T21:56:02.435Z,3.33
2023-05-09T21:58:30.013Z,3.17
2023-05-09T22:00:57.433Z,3.40
2023-05-09T22:03:25.371Z,3.47
2023-05-09T22:05:53.121Z,3.42
2023-05-09T22:08:20.823Z,3.15
2023-05-09T22:10:48.596Z,3.63
2023-05-09T22:13:17.556Z,3.45
2023-05-09T22:15:45.008Z,3.38
2023-05-09T22:18:12.682Z,2.72
2023-05-09T22:20:40.169Z,3.00
2023-05-09T22:23:07.708Z,3.28
2023-05-09T22:25:35.702Z,2.85
2023-05-09T22:28:03.557Z,3.00
2023-05-09T22:30:31.510Z,3.67
2023-05-09T22:33:00.460Z,3.42
2023-05-09T22:35:28.271Z,4.13
2023-05-09T22:37:56.062Z,4.82
2023-05-09T22:40:24.085Z,5.00
2023-05-09T22:42:51.713Z,5.05
2023-05-09T22:45:20.700Z,5.35
2023-05-09T22:47:48.872Z,5.47
2023-05-09T22:50:16.966Z,5.90
2023-05-09T22:52:44.846Z,5.47
2023-05-09T22:55:12.656Z,7.03
2023-05-09T22:57:41.787Z,6.20
2023-05-09T23:00:10.288Z,5.90
2023-05-09T23:02:38.367Z,6.72
2023-05-09T23:05:06.680Z,6.75
2023-05-09T23:07:34.643Z,6.70
2023-05-09T23:10:02.641Z,7.78
2023-05-09T23:12:30.499Z,7.80
2023-05-09T23:14:58.333Z,6.80
2023-05-09T23:17:29.321Z,6.95
2023-05-09T23:19:57.292Z,7.50
2023-05-09T23:22:25.102Z,6.50
2023-05-09T23:24:52.818Z,6.15
2023-05-09T23:27:20.421Z,7.22
2023-05-09T23:29:48.068Z,6.82
2023-05-09T23:32:15.767Z,5.68
2023-05-09T23:34:43.433Z,6.25
2023-05-09T23:37:12.168Z,7.05
2023-05-09T23:39:40.066Z,7.47
2023-05-09T23:42:08.414Z,6.22
2023-05-09T23:44:36.078Z,5.90
2023-05-09T23:47:03.969Z,5.43
2023-05-09T23:49:32.002Z,5.57
2023-05-09T23:51:59.684Z,5.60
2023-05-09T23:54:27.509Z,6.05
2023-05-09T23:56:57.670Z,6.00
2023-05-09T23:59:25.576Z,5.05
